Search for airport 
image banner adimage banner adimage banner ad
image banner ad

0PN9 - Paul Personal Use

Located in Titusville, United States

ICAO - 0PN9, IATA -

Data provided by Airmate  

General information

Coordinates: N41°43'10" W79°40'40"
Elevation is 1645 feet MSL.
Magnetic variation is -08° East
View others Airports in Pennsylvania

Operational data

Special qualification required
Current time UTC:
Current local time:
Weather at : KFKL - Venango Rgnl ( 41 km )
METAR: KFKL 182156Z AUTO 34003KT 10SM CLR 25/06 A3029 RMK AO2 SLP257 T02500056
TAF: KFKL 181726Z 1818/1918 00000KT P6SM SCT050 FM182300 00000KT P6SM SKC FM191500 16004KT P6SM SCT040
View NOTAMs / SUP AIP / TFR affecting this airport [VIEW]
Communications frequencies: [VIEW]

Runways:

RWY identifierQFULength (ft)Width (ft)SurfaceLDA (ft)
NW180075GRASS
SE180075GRASS

Airport contact information

Address: Titusville United States

Satellite view of 0PN9